Current | Forecast
Updated: 4:00 PM JST on June 20, 2018
Observed at Sendai Airport, Japan
Temperature 66°F
Humidity 100%
Dew Point 66°F
Wind SSE at 7 mph
Pressure 29.65 in (Steady)
Conditions Light Rain
Visibility 6.2 miles
UV 2 out of 16
Clouds (FEW) : 300 ft
Mostly Cloudy (BKN) : 500 ft
Mostly Cloudy (BKN) : 4000 ft
Yesterday's Maximum 72°F
Yesterday's Minimum 66°F approx.
Yesterday's Cooling Degree Days 4 approx.
Sunrise4:13 AM JST
Sunset7:02 PM JST
Moon Rise11:09 AM JST
Moon Set
Moon PhaseMoon Phase
Waxing Crescent
Raw METARMETAR RJSS 200700Z 16006KT 9999 -RA FEW003 BKN005 BKN040 19/19 Q1004


Monday
. High: 73° F.
Tuesday
. High: 73° F.
Wednesday
. High: 68° F.
Thursday
. High: 73° F.
Friday
. High: 75° F.
Saturday
. High: 71° F.
Sunday
. High: 77° F.
Monday
. High: 66° F.

Units: English | Metric

Find the Weather for any City, State or Zipcode, or Country:

U.S. State List | Severe Weather | Tropical Storms | Ski Conditions
United States | Canada | Central America | South America | Asia | Europe | Australia | Africa | Islands

Weather Underground

© Copyright 2018
The Weather Company, LLC